sensor_id;sensor_type;location;lat;lon;timestamp;P1;durP1;ratioP1;P2;durP2;ratioP2
813;SDS011;389;48.710;9.392;2023-12-28T00:01:50;17.30;;;9.97;;
813;SDS011;389;48.710;9.392;2023-12-28T00:04:15;18.43;;;9.73;;
813;SDS011;389;48.710;9.392;2023-12-28T00:06:41;16.90;;;9.77;;
813;SDS011;389;48.710;9.392;2023-12-28T00:09:07;19.97;;;9.50;;
813;SDS011;389;48.710;9.392;2023-12-28T00:11:34;16.87;;;9.50;;
813;SDS011;389;48.710;9.392;2023-12-28T00:14:00;16.20;;;9.73;;
813;SDS011;389;48.710;9.392;2023-12-28T00:16:26;13.93;;;8.83;;
813;SDS011;389;48.710;9.392;2023-12-28T00:18:52;17.00;;;10.80;;
813;SDS011;389;48.710;9.392;2023-12-28T00:21:17;17.77;;;10.23;;
813;SDS011;389;48.710;9.392;2023-12-28T00:23:43;15.53;;;10.17;;
813;SDS011;389;48.710;9.392;2023-12-28T00:26:08;15.80;;;9.90;;
813;SDS011;389;48.710;9.392;2023-12-28T00:28:34;14.20;;;9.50;;
813;SDS011;389;48.710;9.392;2023-12-28T00:30:59;17.13;;;9.20;;
813;SDS011;389;48.710;9.392;2023-12-28T00:33:25;13.20;;;9.00;;
813;SDS011;389;48.710;9.392;2023-12-28T00:35:50;16.47;;;9.17;;
813;SDS011;389;48.710;9.392;2023-12-28T00:38:16;14.70;;;9.40;;
813;SDS011;389;48.710;9.392;2023-12-28T00:40:41;18.37;;;11.50;;
813;SDS011;389;48.710;9.392;2023-12-28T00:43:07;16.60;;;10.30;;
813;SDS011;389;48.710;9.392;2023-12-28T00:45:33;16.07;;;9.93;;
813;SDS011;389;48.710;9.392;2023-12-28T00:47:58;18.27;;;10.90;;
813;SDS011;389;48.710;9.392;2023-12-28T00:50:24;15.57;;;10.30;;
813;SDS011;389;48.710;9.392;2023-12-28T00:52:52;14.33;;;9.97;;
813;SDS011;389;48.710;9.392;2023-12-28T00:55:17;17.27;;;10.47;;
813;SDS011;389;48.710;9.392;2023-12-28T00:57:43;17.93;;;10.30;;
813;SDS011;389;48.710;9.392;2023-12-28T01:00:09;16.00;;;10.80;;
813;SDS011;389;48.710;9.392;2023-12-28T01:02:34;15.60;;;9.93;;
813;SDS011;389;48.710;9.392;2023-12-28T01:05:00;16.47;;;10.10;;
813;SDS011;389;48.710;9.392;2023-12-28T01:07:26;15.13;;;9.60;;
813;SDS011;389;48.710;9.392;2023-12-28T01:09:51;13.47;;;9.40;;
813;SDS011;389;48.710;9.392;2023-12-28T01:12:17;19.23;;;10.03;;
813;SDS011;389;48.710;9.392;2023-12-28T01:14:42;17.07;;;10.17;;
813;SDS011;389;48.710;9.392;2023-12-28T01:17:08;20.73;;;11.57;;
813;SDS011;389;48.710;9.392;2023-12-28T01:19:33;14.70;;;9.40;;
813;SDS011;389;48.710;9.392;2023-12-28T01:21:59;19.73;;;10.20;;
813;SDS011;389;48.710;9.392;2023-12-28T01:24:24;14.57;;;9.70;;
813;SDS011;389;48.710;9.392;2023-12-28T01:26:51;16.00;;;8.83;;
813;SDS011;389;48.710;9.392;2023-12-28T01:29:17;16.40;;;9.07;;
813;SDS011;389;48.710;9.392;2023-12-28T01:31:42;11.50;;;8.20;;
813;SDS011;389;48.710;9.392;2023-12-28T01:34:08;16.73;;;9.93;;
813;SDS011;389;48.710;9.392;2023-12-28T01:36:34;16.07;;;9.20;;
813;SDS011;389;48.710;9.392;2023-12-28T01:39:00;14.90;;;9.10;;
813;SDS011;389;48.710;9.392;2023-12-28T01:41:26;15.87;;;9.90;;
813;SDS011;389;48.710;9.392;2023-12-28T01:43:51;17.57;;;9.50;;
813;SDS011;389;48.710;9.392;2023-12-28T01:46:17;13.13;;;8.53;;
813;SDS011;389;48.710;9.392;2023-12-28T01:48:46;11.77;;;8.17;;
813;SDS011;389;48.710;9.392;2023-12-28T01:51:15;13.87;;;8.80;;
813;SDS011;389;48.710;9.392;2023-12-28T01:53:41;14.83;;;8.67;;
813;SDS011;389;48.710;9.392;2023-12-28T01:56:08;15.00;;;9.10;;
813;SDS011;389;48.710;9.392;2023-12-28T01:58:35;15.53;;;9.70;;
813;SDS011;389;48.710;9.392;2023-12-28T02:01:06;13.67;;;8.53;;
813;SDS011;389;48.710;9.392;2023-12-28T02:03:32;18.33;;;8.93;;
813;SDS011;389;48.710;9.392;2023-12-28T02:05:59;16.20;;;9.03;;
813;SDS011;389;48.710;9.392;2023-12-28T02:08:26;14.30;;;9.50;;
813;SDS011;389;48.710;9.392;2023-12-28T02:10:52;15.80;;;9.33;;
813;SDS011;389;48.710;9.392;2023-12-28T02:13:20;16.80;;;9.60;;
813;SDS011;389;48.710;9.392;2023-12-28T02:15:46;13.97;;;9.77;;
813;SDS011;389;48.710;9.392;2023-12-28T02:18:21;18.23;;;9.23;;
813;SDS011;389;48.710;9.392;2023-12-28T02:20:57;16.00;;;9.83;;
813;SDS011;389;48.710;9.392;2023-12-28T02:23:25;12.70;;;9.43;;
813;SDS011;389;48.710;9.392;2023-12-28T02:25:50;15.73;;;9.10;;
813;SDS011;389;48.710;9.392;2023-12-28T02:28:16;14.00;;;8.17;;
813;SDS011;389;48.710;9.392;2023-12-28T02:30:42;12.83;;;8.57;;
813;SDS011;389;48.710;9.392;2023-12-28T02:33:20;13.87;;;8.10;;
813;SDS011;389;48.710;9.392;2023-12-28T02:35:58;32.40;;;13.83;;
813;SDS011;389;48.710;9.392;2023-12-28T02:38:32;16.03;;;9.63;;
813;SDS011;389;48.710;9.392;2023-12-28T02:41:02;11.00;;;7.17;;
813;SDS011;389;48.710;9.392;2023-12-28T02:43:29;13.10;;;8.90;;
813;SDS011;389;48.710;9.392;2023-12-28T02:45:58;11.30;;;7.57;;
813;SDS011;389;48.710;9.392;2023-12-28T02:48:24;14.73;;;9.20;;
813;SDS011;389;48.710;9.392;2023-12-28T02:50:50;13.00;;;8.43;;
813;SDS011;389;48.710;9.392;2023-12-28T02:53:16;14.40;;;7.73;;
813;SDS011;389;48.710;9.392;2023-12-28T02:55:42;14.53;;;8.13;;
813;SDS011;389;48.710;9.392;2023-12-28T02:58:07;12.70;;;8.20;;
813;SDS011;389;48.710;9.392;2023-12-28T03:00:33;12.43;;;8.00;;
813;SDS011;389;48.710;9.392;2023-12-28T03:02:58;15.60;;;9.60;;
813;SDS011;389;48.710;9.392;2023-12-28T03:05:24;13.53;;;8.60;;
813;SDS011;389;48.710;9.392;2023-12-28T03:07:50;11.00;;;7.57;;
813;SDS011;389;48.710;9.392;2023-12-28T03:10:15;11.87;;;7.77;;
813;SDS011;389;48.710;9.392;2023-12-28T03:12:41;12.27;;;7.90;;
813;SDS011;389;48.710;9.392;2023-12-28T03:15:07;8.53;;;6.87;;
813;SDS011;389;48.710;9.392;2023-12-28T03:17:32;12.00;;;7.73;;
813;SDS011;389;48.710;9.392;2023-12-28T03:19:58;13.03;;;8.00;;
813;SDS011;389;48.710;9.392;2023-12-28T03:22:24;20.23;;;10.77;;
813;SDS011;389;48.710;9.392;2023-12-28T03:24:50;15.80;;;9.10;;
813;SDS011;389;48.710;9.392;2023-12-28T03:27:16;14.67;;;9.77;;
813;SDS011;389;48.710;9.392;2023-12-28T03:29:42;14.33;;;9.00;;
813;SDS011;389;48.710;9.392;2023-12-28T03:32:08;13.10;;;8.43;;
813;SDS011;389;48.710;9.392;2023-12-28T03:34:33;16.63;;;9.50;;
813;SDS011;389;48.710;9.392;2023-12-28T03:37:00;14.23;;;9.10;;
813;SDS011;389;48.710;9.392;2023-12-28T03:39:25;13.50;;;8.70;;
813;SDS011;389;48.710;9.392;2023-12-28T03:41:51;13.77;;;9.10;;
813;SDS011;389;48.710;9.392;2023-12-28T03:44:20;14.93;;;9.33;;
813;SDS011;389;48.710;9.392;2023-12-28T03:46:47;14.87;;;9.50;;
813;SDS011;389;48.710;9.392;2023-12-28T03:49:23;15.43;;;9.20;;
813;SDS011;389;48.710;9.392;2023-12-28T03:51:49;13.60;;;8.80;;
813;SDS011;389;48.710;9.392;2023-12-28T03:54:15;14.37;;;8.47;;
813;SDS011;389;48.710;9.392;2023-12-28T03:56:42;14.33;;;8.70;;
813;SDS011;389;48.710;9.392;2023-12-28T03:59:08;14.43;;;8.60;;
813;SDS011;389;48.710;9.392;2023-12-28T04:01:34;14.27;;;8.57;;
813;SDS011;389;48.710;9.392;2023-12-28T04:03:59;13.80;;;9.00;;
813;SDS011;389;48.710;9.392;2023-12-28T04:06:25;11.27;;;8.03;;
813;SDS011;389;48.710;9.392;2023-12-28T04:08:50;12.47;;;8.40;;
813;SDS011;389;48.710;9.392;2023-12-28T04:11:16;15.30;;;8.70;;
813;SDS011;389;48.710;9.392;2023-12-28T04:13:41;13.53;;;8.77;;
813;SDS011;389;48.710;9.392;2023-12-28T04:16:07;12.30;;;8.83;;
813;SDS011;389;48.710;9.392;2023-12-28T04:18:34;11.83;;;7.50;;
813;SDS011;389;48.710;9.392;2023-12-28T04:21:00;12.00;;;7.10;;
813;SDS011;389;48.710;9.392;2023-12-28T04:23:25;17.57;;;8.53;;
813;SDS011;389;48.710;9.392;2023-12-28T04:25:51;13.57;;;7.90;;
813;SDS011;389;48.710;9.392;2023-12-28T04:28:16;12.43;;;8.07;;
813;SDS011;389;48.710;9.392;2023-12-28T04:30:42;11.97;;;8.07;;
813;SDS011;389;48.710;9.392;2023-12-28T04:33:08;11.97;;;7.97;;
813;SDS011;389;48.710;9.392;2023-12-28T04:35:33;12.20;;;8.20;;
813;SDS011;389;48.710;9.392;2023-12-28T04:37:59;14.87;;;8.10;;
813;SDS011;389;48.710;9.392;2023-12-28T04:40:25;10.30;;;7.20;;
813;SDS011;389;48.710;9.392;2023-12-28T04:42:50;10.87;;;7.73;;
813;SDS011;389;48.710;9.392;2023-12-28T04:45:16;12.10;;;8.47;;
813;SDS011;389;48.710;9.392;2023-12-28T04:47:41;10.17;;;7.50;;
813;SDS011;389;48.710;9.392;2023-12-28T04:50:07;13.30;;;7.93;;
813;SDS011;389;48.710;9.392;2023-12-28T04:52:33;10.90;;;7.30;;
813;SDS011;389;48.710;9.392;2023-12-28T04:54:58;12.90;;;8.13;;
813;SDS011;389;48.710;9.392;2023-12-28T04:57:24;13.23;;;7.80;;
813;SDS011;389;48.710;9.392;2023-12-28T04:59:51;13.13;;;7.40;;
813;SDS011;389;48.710;9.392;2023-12-28T05:02:17;12.07;;;8.00;;
813;SDS011;389;48.710;9.392;2023-12-28T05:04:43;16.20;;;7.50;;
813;SDS011;389;48.710;9.392;2023-12-28T05:07:08;10.07;;;6.73;;
813;SDS011;389;48.710;9.392;2023-12-28T05:09:34;11.07;;;8.40;;
813;SDS011;389;48.710;9.392;2023-12-28T05:11:59;13.00;;;8.40;;
813;SDS011;389;48.710;9.392;2023-12-28T05:14:25;14.87;;;8.37;;
813;SDS011;389;48.710;9.392;2023-12-28T05:16:51;13.40;;;8.53;;
813;SDS011;389;48.710;9.392;2023-12-28T05:19:16;12.30;;;8.10;;
813;SDS011;389;48.710;9.392;2023-12-28T05:21:42;13.13;;;8.57;;
813;SDS011;389;48.710;9.392;2023-12-28T05:24:08;14.87;;;8.30;;
813;SDS011;389;48.710;9.392;2023-12-28T05:26:33;13.03;;;7.67;;
813;SDS011;389;48.710;9.392;2023-12-28T05:28:59;13.60;;;8.37;;
813;SDS011;389;48.710;9.392;2023-12-28T05:31:25;13.20;;;7.40;;
813;SDS011;389;48.710;9.392;2023-12-28T05:33:51;9.40;;;6.90;;
813;SDS011;389;48.710;9.392;2023-12-28T05:36:16;11.83;;;8.33;;
813;SDS011;389;48.710;9.392;2023-12-28T05:38:42;11.50;;;7.27;;
813;SDS011;389;48.710;9.392;2023-12-28T05:41:11;9.80;;;8.23;;
813;SDS011;389;48.710;9.392;2023-12-28T05:43:36;11.07;;;7.70;;
813;SDS011;389;48.710;9.392;2023-12-28T05:46:02;10.30;;;8.37;;
813;SDS011;389;48.710;9.392;2023-12-28T05:48:28;12.07;;;7.83;;
813;SDS011;389;48.710;9.392;2023-12-28T05:50:54;10.23;;;7.87;;
813;SDS011;389;48.710;9.392;2023-12-28T05:53:19;10.20;;;7.60;;
813;SDS011;389;48.710;9.392;2023-12-28T05:55:45;13.30;;;6.90;;
813;SDS011;389;48.710;9.392;2023-12-28T05:58:10;11.90;;;8.20;;
813;SDS011;389;48.710;9.392;2023-12-28T06:00:36;9.20;;;6.60;;
813;SDS011;389;48.710;9.392;2023-12-28T06:03:03;12.37;;;7.30;;
813;SDS011;389;48.710;9.392;2023-12-28T06:05:29;10.77;;;7.20;;
813;SDS011;389;48.710;9.392;2023-12-28T06:07:55;12.30;;;7.40;;
813;SDS011;389;48.710;9.392;2023-12-28T06:10:20;12.67;;;7.43;;
813;SDS011;389;48.710;9.392;2023-12-28T06:12:46;11.00;;;7.20;;
813;SDS011;389;48.710;9.392;2023-12-28T06:15:11;11.00;;;7.77;;
813;SDS011;389;48.710;9.392;2023-12-28T06:17:37;10.60;;;6.67;;
813;SDS011;389;48.710;9.392;2023-12-28T06:20:03;16.87;;;11.30;;
813;SDS011;389;48.710;9.392;2023-12-28T06:22:29;11.00;;;7.40;;
813;SDS011;389;48.710;9.392;2023-12-28T06:24:55;9.40;;;6.40;;
813;SDS011;389;48.710;9.392;2023-12-28T06:27:21;11.17;;;7.03;;
813;SDS011;389;48.710;9.392;2023-12-28T06:29:46;10.90;;;6.43;;
813;SDS011;389;48.710;9.392;2023-12-28T06:32:12;11.93;;;7.20;;
813;SDS011;389;48.710;9.392;2023-12-28T06:34:38;8.90;;;6.40;;
813;SDS011;389;48.710;9.392;2023-12-28T06:37:04;13.33;;;8.57;;
813;SDS011;389;48.710;9.392;2023-12-28T06:39:29;13.13;;;8.23;;
813;SDS011;389;48.710;9.392;2023-12-28T06:41:55;12.50;;;7.90;;
813;SDS011;389;48.710;9.392;2023-12-28T06:44:20;12.60;;;7.17;;
813;SDS011;389;48.710;9.392;2023-12-28T06:46:46;9.83;;;7.03;;
813;SDS011;389;48.710;9.392;2023-12-28T06:49:12;12.50;;;7.97;;
813;SDS011;389;48.710;9.392;2023-12-28T06:51:37;12.90;;;7.60;;
813;SDS011;389;48.710;9.392;2023-12-28T06:54:03;11.77;;;7.57;;
813;SDS011;389;48.710;9.392;2023-12-28T06:56:29;11.60;;;8.13;;
813;SDS011;389;48.710;9.392;2023-12-28T06:58:55;14.37;;;8.57;;
813;SDS011;389;48.710;9.392;2023-12-28T07:01:20;12.03;;;8.53;;
813;SDS011;389;48.710;9.392;2023-12-28T07:03:46;11.10;;;7.17;;
813;SDS011;389;48.710;9.392;2023-12-28T07:06:13;13.40;;;8.40;;
813;SDS011;389;48.710;9.392;2023-12-28T07:08:39;11.10;;;7.03;;
813;SDS011;389;48.710;9.392;2023-12-28T07:11:04;9.93;;;7.17;;
813;SDS011;389;48.710;9.392;2023-12-28T07:13:30;10.43;;;7.40;;
813;SDS011;389;48.710;9.392;2023-12-28T07:15:56;10.97;;;7.97;;
813;SDS011;389;48.710;9.392;2023-12-28T07:18:21;11.80;;;7.70;;
813;SDS011;389;48.710;9.392;2023-12-28T07:20:47;14.20;;;10.17;;
813;SDS011;389;48.710;9.392;2023-12-28T07:23:13;11.33;;;7.27;;
813;SDS011;389;48.710;9.392;2023-12-28T07:25:39;10.77;;;7.87;;
813;SDS011;389;48.710;9.392;2023-12-28T07:28:05;12.83;;;8.13;;
813;SDS011;389;48.710;9.392;2023-12-28T07:30:31;11.17;;;8.40;;
813;SDS011;389;48.710;9.392;2023-12-28T07:32:56;11.70;;;8.40;;
813;SDS011;389;48.710;9.392;2023-12-28T07:35:22;10.07;;;7.40;;
813;SDS011;389;48.710;9.392;2023-12-28T07:37:48;13.20;;;7.90;;
813;SDS011;389;48.710;9.392;2023-12-28T07:40:14;12.67;;;7.43;;
813;SDS011;389;48.710;9.392;2023-12-28T07:42:40;12.50;;;8.90;;
813;SDS011;389;48.710;9.392;2023-12-28T07:45:06;14.93;;;10.07;;
813;SDS011;389;48.710;9.392;2023-12-28T07:47:31;19.60;;;9.77;;
813;SDS011;389;48.710;9.392;2023-12-28T07:49:58;20.57;;;12.23;;
813;SDS011;389;48.710;9.392;2023-12-28T07:52:24;18.97;;;11.20;;
813;SDS011;389;48.710;9.392;2023-12-28T07:54:49;14.93;;;9.37;;
813;SDS011;389;48.710;9.392;2023-12-28T07:57:15;16.80;;;8.20;;
813;SDS011;389;48.710;9.392;2023-12-28T07:59:40;12.07;;;8.30;;
813;SDS011;389;48.710;9.392;2023-12-28T08:02:06;61.07;;;29.73;;
813;SDS011;389;48.710;9.392;2023-12-28T08:04:33;89.03;;;42.40;;
813;SDS011;389;48.710;9.392;2023-12-28T08:06:58;80.80;;;32.57;;
813;SDS011;389;48.710;9.392;2023-12-28T08:09:24;60.07;;;26.37;;
813;SDS011;389;48.710;9.392;2023-12-28T08:11:50;36.33;;;18.93;;
813;SDS011;389;48.710;9.392;2023-12-28T08:14:15;22.27;;;12.13;;
813;SDS011;389;48.710;9.392;2023-12-28T08:16:41;18.10;;;8.93;;
813;SDS011;389;48.710;9.392;2023-12-28T08:19:06;18.00;;;8.97;;
813;SDS011;389;48.710;9.392;2023-12-28T08:21:32;17.50;;;9.10;;
813;SDS011;389;48.710;9.392;2023-12-28T08:23:58;17.47;;;9.07;;
813;SDS011;389;48.710;9.392;2023-12-28T08:26:23;15.43;;;9.30;;
813;SDS011;389;48.710;9.392;2023-12-28T08:28:49;19.13;;;9.93;;
813;SDS011;389;48.710;9.392;2023-12-28T08:31:14;27.90;;;18.47;;
813;SDS011;389;48.710;9.392;2023-12-28T08:33:40;14.17;;;9.73;;
813;SDS011;389;48.710;9.392;2023-12-28T08:36:06;14.73;;;9.07;;
813;SDS011;389;48.710;9.392;2023-12-28T08:38:32;16.17;;;9.43;;
813;SDS011;389;48.710;9.392;2023-12-28T08:40:58;18.60;;;11.07;;
813;SDS011;389;48.710;9.392;2023-12-28T08:43:24;18.70;;;10.57;;
813;SDS011;389;48.710;9.392;2023-12-28T08:45:49;20.33;;;12.07;;
813;SDS011;389;48.710;9.392;2023-12-28T08:48:15;17.30;;;11.60;;
813;SDS011;389;48.710;9.392;2023-12-28T08:50:40;19.00;;;11.30;;
813;SDS011;389;48.710;9.392;2023-12-28T08:53:06;20.27;;;10.80;;
813;SDS011;389;48.710;9.392;2023-12-28T08:55:32;14.73;;;10.03;;
813;SDS011;389;48.710;9.392;2023-12-28T08:57:58;15.90;;;10.10;;
813;SDS011;389;48.710;9.392;2023-12-28T09:00:24;15.63;;;10.43;;
813;SDS011;389;48.710;9.392;2023-12-28T09:02:51;22.43;;;10.90;;
813;SDS011;389;48.710;9.392;2023-12-28T09:05:16;13.90;;;9.53;;
813;SDS011;389;48.710;9.392;2023-12-28T09:07:42;16.53;;;12.20;;
813;SDS011;389;48.710;9.392;2023-12-28T09:10:09;15.93;;;11.10;;
813;SDS011;389;48.710;9.392;2023-12-28T09:12:35;21.40;;;10.77;;
813;SDS011;389;48.710;9.392;2023-12-28T09:15:01;14.50;;;9.20;;
813;SDS011;389;48.710;9.392;2023-12-28T09:17:26;11.80;;;8.17;;
813;SDS011;389;48.710;9.392;2023-12-28T09:19:52;11.30;;;7.23;;
813;SDS011;389;48.710;9.392;2023-12-28T09:22:18;12.63;;;7.20;;
813;SDS011;389;48.710;9.392;2023-12-28T09:24:43;13.67;;;8.03;;
813;SDS011;389;48.710;9.392;2023-12-28T09:27:09;11.57;;;8.50;;
813;SDS011;389;48.710;9.392;2023-12-28T09:29:34;12.80;;;8.50;;
813;SDS011;389;48.710;9.392;2023-12-28T09:32:00;10.60;;;9.23;;
813;SDS011;389;48.710;9.392;2023-12-28T09:34:26;16.97;;;10.00;;
813;SDS011;389;48.710;9.392;2023-12-28T09:36:51;11.77;;;8.53;;
813;SDS011;389;48.710;9.392;2023-12-28T09:39:17;15.57;;;9.80;;
813;SDS011;389;48.710;9.392;2023-12-28T09:41:43;14.87;;;10.80;;
813;SDS011;389;48.710;9.392;2023-12-28T09:44:14;14.60;;;10.67;;
813;SDS011;389;48.710;9.392;2023-12-28T09:46:42;19.40;;;11.40;;
813;SDS011;389;48.710;9.392;2023-12-28T09:49:08;20.23;;;11.37;;
813;SDS011;389;48.710;9.392;2023-12-28T09:51:34;16.30;;;11.10;;
813;SDS011;389;48.710;9.392;2023-12-28T09:54:00;15.60;;;11.40;;
813;SDS011;389;48.710;9.392;2023-12-28T09:56:27;17.73;;;10.90;;
813;SDS011;389;48.710;9.392;2023-12-28T09:58:53;23.90;;;14.83;;
813;SDS011;389;48.710;9.392;2023-12-28T10:01:21;32.77;;;17.10;;
813;SDS011;389;48.710;9.392;2023-12-28T10:03:47;27.17;;;17.00;;
813;SDS011;389;48.710;9.392;2023-12-28T10:06:12;23.83;;;14.40;;
813;SDS011;389;48.710;9.392;2023-12-28T10:08:44;22.93;;;15.00;;
813;SDS011;389;48.710;9.392;2023-12-28T10:11:17;20.87;;;14.57;;
813;SDS011;389;48.710;9.392;2023-12-28T10:13:43;22.07;;;12.93;;
813;SDS011;389;48.710;9.392;2023-12-28T10:16:10;20.63;;;12.73;;
813;SDS011;389;48.710;9.392;2023-12-28T10:18:41;29.53;;;13.43;;
813;SDS011;389;48.710;9.392;2023-12-28T10:21:09;17.43;;;11.90;;
813;SDS011;389;48.710;9.392;2023-12-28T10:23:36;21.00;;;11.60;;
813;SDS011;389;48.710;9.392;2023-12-28T10:26:03;15.13;;;11.20;;
813;SDS011;389;48.710;9.392;2023-12-28T10:28:32;16.50;;;11.33;;
813;SDS011;389;48.710;9.392;2023-12-28T10:31:04;17.53;;;10.73;;
813;SDS011;389;48.710;9.392;2023-12-28T10:33:34;12.10;;;9.03;;
813;SDS011;389;48.710;9.392;2023-12-28T10:36:00;13.63;;;9.47;;
813;SDS011;389;48.710;9.392;2023-12-28T10:38:33;21.23;;;8.50;;
813;SDS011;389;48.710;9.392;2023-12-28T10:41:02;17.73;;;8.70;;
813;SDS011;389;48.710;9.392;2023-12-28T10:43:35;15.87;;;9.07;;
813;SDS011;389;48.710;9.392;2023-12-28T10:46:26;12.17;;;8.40;;
813;SDS011;389;48.710;9.392;2023-12-28T10:48:53;12.87;;;7.90;;
813;SDS011;389;48.710;9.392;2023-12-28T10:51:24;14.60;;;8.77;;
813;SDS011;389;48.710;9.392;2023-12-28T10:54:01;15.20;;;9.13;;
813;SDS011;389;48.710;9.392;2023-12-28T10:56:36;10.67;;;8.93;;
813;SDS011;389;48.710;9.392;2023-12-28T11:01:43;10.07;;;8.40;;
813;SDS011;389;48.710;9.392;2023-12-28T11:06:48;15.20;;;9.77;;
813;SDS011;389;48.710;9.392;2023-12-28T11:09:15;13.87;;;9.50;;
813;SDS011;389;48.710;9.392;2023-12-28T11:11:42;16.30;;;11.83;;
813;SDS011;389;48.710;9.392;2023-12-28T11:14:08;15.63;;;10.50;;
813;SDS011;389;48.710;9.392;2023-12-28T11:16:34;16.50;;;9.53;;
813;SDS011;389;48.710;9.392;2023-12-28T11:19:02;17.30;;;10.13;;
813;SDS011;389;48.710;9.392;2023-12-28T11:21:28;15.37;;;10.97;;
813;SDS011;389;48.710;9.392;2023-12-28T11:23:55;13.43;;;9.97;;
813;SDS011;389;48.710;9.392;2023-12-28T11:26:22;15.03;;;10.83;;
813;SDS011;389;48.710;9.392;2023-12-28T11:28:48;14.07;;;9.97;;
813;SDS011;389;48.710;9.392;2023-12-28T11:31:15;15.97;;;10.70;;
813;SDS011;389;48.710;9.392;2023-12-28T11:36:32;14.50;;;10.03;;
813;SDS011;389;48.710;9.392;2023-12-28T11:39:01;13.60;;;10.47;;
813;SDS011;389;48.710;9.392;2023-12-28T11:41:30;17.03;;;11.27;;
813;SDS011;389;48.710;9.392;2023-12-28T11:44:03;14.47;;;11.17;;
813;SDS011;389;48.710;9.392;2023-12-28T11:46:32;20.90;;;10.70;;
813;SDS011;389;48.710;9.392;2023-12-28T11:49:04;14.40;;;10.77;;
813;SDS011;389;48.710;9.392;2023-12-28T11:51:30;15.53;;;9.83;;
813;SDS011;389;48.710;9.392;2023-12-28T11:53:56;12.73;;;9.30;;
813;SDS011;389;48.710;9.392;2023-12-28T11:56:24;16.10;;;10.33;;
813;SDS011;389;48.710;9.392;2023-12-28T11:58:50;15.33;;;9.73;;
813;SDS011;389;48.710;9.392;2023-12-28T12:01:16;11.73;;;9.37;;
813;SDS011;389;48.710;9.392;2023-12-28T12:03:42;13.40;;;8.83;;
813;SDS011;389;48.710;9.392;2023-12-28T12:06:08;13.40;;;9.17;;
813;SDS011;389;48.710;9.392;2023-12-28T12:08:33;14.27;;;9.63;;
813;SDS011;389;48.710;9.392;2023-12-28T12:10:59;14.90;;;9.17;;
813;SDS011;389;48.710;9.392;2023-12-28T12:13:28;14.00;;;10.10;;
813;SDS011;389;48.710;9.392;2023-12-28T12:15:55;12.70;;;9.40;;
813;SDS011;389;48.710;9.392;2023-12-28T12:18:21;14.37;;;9.23;;
813;SDS011;389;48.710;9.392;2023-12-28T12:20:47;11.80;;;9.10;;
813;SDS011;389;48.710;9.392;2023-12-28T12:23:13;13.60;;;10.20;;
813;SDS011;389;48.710;9.392;2023-12-28T12:25:40;13.50;;;9.17;;
813;SDS011;389;48.710;9.392;2023-12-28T12:28:06;14.10;;;8.43;;
813;SDS011;389;48.710;9.392;2023-12-28T12:30:32;11.90;;;8.90;;
813;SDS011;389;48.710;9.392;2023-12-28T12:32:58;16.63;;;9.73;;
813;SDS011;389;48.710;9.392;2023-12-28T12:35:24;18.60;;;10.47;;
813;SDS011;389;48.710;9.392;2023-12-28T12:37:49;15.27;;;10.13;;
813;SDS011;389;48.710;9.392;2023-12-28T12:40:16;13.80;;;8.63;;
813;SDS011;389;48.710;9.392;2023-12-28T12:42:51;13.20;;;9.57;;
813;SDS011;389;48.710;9.392;2023-12-28T12:45:18;17.17;;;10.50;;
813;SDS011;389;48.710;9.392;2023-12-28T12:47:45;13.57;;;9.97;;
813;SDS011;389;48.710;9.392;2023-12-28T12:50:11;14.57;;;10.57;;
813;SDS011;389;48.710;9.392;2023-12-28T12:52:36;15.10;;;11.10;;
813;SDS011;389;48.710;9.392;2023-12-28T12:55:03;17.27;;;10.73;;
813;SDS011;389;48.710;9.392;2023-12-28T12:57:29;33.37;;;19.20;;
813;SDS011;389;48.710;9.392;2023-12-28T12:59:55;20.43;;;13.37;;
813;SDS011;389;48.710;9.392;2023-12-28T13:02:24;21.07;;;13.90;;
813;SDS011;389;48.710;9.392;2023-12-28T13:04:56;40.30;;;24.13;;
813;SDS011;389;48.710;9.392;2023-12-28T13:07:22;32.10;;;19.50;;
813;SDS011;389;48.710;9.392;2023-12-28T13:09:47;29.20;;;18.17;;
813;SDS011;389;48.710;9.392;2023-12-28T13:12:13;28.10;;;16.60;;
813;SDS011;389;48.710;9.392;2023-12-28T13:14:38;22.90;;;13.87;;
813;SDS011;389;48.710;9.392;2023-12-28T13:17:04;15.17;;;12.50;;
813;SDS011;389;48.710;9.392;2023-12-28T13:19:29;18.77;;;12.03;;
813;SDS011;389;48.710;9.392;2023-12-28T13:21:55;23.50;;;15.30;;
813;SDS011;389;48.710;9.392;2023-12-28T13:24:21;19.43;;;11.97;;
813;SDS011;389;48.710;9.392;2023-12-28T13:26:47;18.63;;;11.83;;
813;SDS011;389;48.710;9.392;2023-12-28T13:29:12;17.00;;;10.33;;
813;SDS011;389;48.710;9.392;2023-12-28T13:31:38;13.73;;;11.00;;
813;SDS011;389;48.710;9.392;2023-12-28T13:34:04;15.40;;;11.80;;
813;SDS011;389;48.710;9.392;2023-12-28T13:36:30;12.90;;;9.87;;
813;SDS011;389;48.710;9.392;2023-12-28T13:38:55;16.90;;;11.40;;
813;SDS011;389;48.710;9.392;2023-12-28T13:41:21;17.53;;;10.17;;
813;SDS011;389;48.710;9.392;2023-12-28T13:43:47;18.33;;;12.87;;
813;SDS011;389;48.710;9.392;2023-12-28T13:46:12;17.80;;;12.13;;
813;SDS011;389;48.710;9.392;2023-12-28T13:48:38;19.20;;;12.93;;
813;SDS011;389;48.710;9.392;2023-12-28T13:51:07;23.97;;;15.50;;
813;SDS011;389;48.710;9.392;2023-12-28T13:53:33;21.67;;;15.30;;
813;SDS011;389;48.710;9.392;2023-12-28T13:56:05;22.03;;;15.50;;
813;SDS011;389;48.710;9.392;2023-12-28T13:58:31;18.00;;;13.53;;
813;SDS011;389;48.710;9.392;2023-12-28T14:00:57;17.60;;;13.77;;
813;SDS011;389;48.710;9.392;2023-12-28T14:03:22;17.30;;;12.10;;
813;SDS011;389;48.710;9.392;2023-12-28T14:05:48;16.97;;;13.80;;
813;SDS011;389;48.710;9.392;2023-12-28T14:08:14;24.47;;;15.00;;
813;SDS011;389;48.710;9.392;2023-12-28T14:10:39;27.07;;;16.83;;
813;SDS011;389;48.710;9.392;2023-12-28T14:13:05;19.47;;;15.00;;
813;SDS011;389;48.710;9.392;2023-12-28T14:15:30;21.80;;;15.57;;
813;SDS011;389;48.710;9.392;2023-12-28T14:17:56;26.10;;;18.47;;
813;SDS011;389;48.710;9.392;2023-12-28T14:20:22;27.70;;;19.43;;
813;SDS011;389;48.710;9.392;2023-12-28T14:22:47;26.33;;;16.57;;
813;SDS011;389;48.710;9.392;2023-12-28T14:25:13;26.87;;;16.70;;
813;SDS011;389;48.710;9.392;2023-12-28T14:27:39;29.67;;;19.57;;
813;SDS011;389;48.710;9.392;2023-12-28T14:30:05;26.43;;;18.30;;
813;SDS011;389;48.710;9.392;2023-12-28T14:32:34;29.40;;;19.03;;
813;SDS011;389;48.710;9.392;2023-12-28T14:35:00;33.27;;;19.27;;
813;SDS011;389;48.710;9.392;2023-12-28T14:37:26;33.80;;;20.67;;
813;SDS011;389;48.710;9.392;2023-12-28T14:39:51;23.90;;;16.40;;
813;SDS011;389;48.710;9.392;2023-12-28T14:42:17;24.70;;;17.13;;
813;SDS011;389;48.710;9.392;2023-12-28T14:44:42;22.60;;;15.73;;
813;SDS011;389;48.710;9.392;2023-12-28T14:47:08;22.17;;;16.23;;
813;SDS011;389;48.710;9.392;2023-12-28T14:49:33;30.90;;;18.33;;
813;SDS011;389;48.710;9.392;2023-12-28T14:51:59;29.57;;;18.00;;
813;SDS011;389;48.710;9.392;2023-12-28T14:54:24;39.37;;;20.10;;
813;SDS011;389;48.710;9.392;2023-12-28T14:56:50;37.27;;;20.70;;
813;SDS011;389;48.710;9.392;2023-12-28T14:59:16;29.97;;;18.53;;
813;SDS011;389;48.710;9.392;2023-12-28T15:01:41;26.23;;;16.00;;
813;SDS011;389;48.710;9.392;2023-12-28T15:04:07;28.07;;;17.37;;
813;SDS011;389;48.710;9.392;2023-12-28T15:06:32;21.30;;;15.10;;
813;SDS011;389;48.710;9.392;2023-12-28T15:08:58;25.57;;;16.70;;
813;SDS011;389;48.710;9.392;2023-12-28T15:11:23;27.07;;;16.63;;
813;SDS011;389;48.710;9.392;2023-12-28T15:13:49;22.17;;;16.40;;
813;SDS011;389;48.710;9.392;2023-12-28T15:16:15;22.10;;;16.37;;
813;SDS011;389;48.710;9.392;2023-12-28T15:18:41;24.40;;;16.73;;
813;SDS011;389;48.710;9.392;2023-12-28T15:21:07;27.13;;;18.10;;
813;SDS011;389;48.710;9.392;2023-12-28T15:23:33;24.10;;;16.80;;
813;SDS011;389;48.710;9.392;2023-12-28T15:25:58;20.40;;;15.23;;
813;SDS011;389;48.710;9.392;2023-12-28T15:28:24;25.73;;;14.87;;